createdAt,value
2018-11-10T00:01:02.167Z,13.00
2018-11-10T00:02:06.452Z,15.65
2018-11-10T00:03:10.500Z,14.95
2018-11-10T00:04:14.601Z,14.85
2018-11-10T00:05:19.619Z,14.78
2018-11-10T00:06:23.687Z,13.72
2018-11-10T00:07:27.804Z,14.35
2018-11-10T00:08:31.889Z,13.75
2018-11-10T00:09:36.058Z,13.93
2018-11-10T00:10:40.083Z,14.07
2018-11-10T00:11:44.306Z,14.45
2018-11-10T00:12:49.022Z,14.23
2018-11-10T00:13:53.369Z,14.33
2018-11-10T00:14:57.532Z,14.33
2018-11-10T00:16:01.647Z,14.07
2018-11-10T00:17:06.449Z,15.65
2018-11-10T00:18:10.658Z,15.03
2018-11-10T00:19:15.328Z,15.30
2018-11-10T00:20:19.432Z,14.13
2018-11-10T00:21:23.471Z,14.33
2018-11-10T00:22:27.745Z,15.35
2018-11-10T00:23:31.927Z,14.58
2018-11-10T00:24:35.996Z,14.38
2018-11-10T00:25:40.088Z,15.05
2018-11-10T00:26:44.288Z,14.80
2018-11-10T00:27:48.450Z,15.10
2018-11-10T00:28:52.761Z,15.40
2018-11-10T00:29:56.907Z,15.93
2018-11-10T00:31:01.115Z,14.10
2018-11-10T00:32:05.893Z,14.95
2018-11-10T00:33:10.176Z,15.85
2018-11-10T00:34:14.355Z,13.95
2018-11-10T00:35:18.487Z,14.68
2018-11-10T00:36:22.691Z,15.95
2018-11-10T00:37:26.994Z,14.33
2018-11-10T00:38:31.122Z,15.18
2018-11-10T00:39:35.204Z,16.40
2018-11-10T00:40:39.291Z,15.68
2018-11-10T00:41:43.371Z,15.10
2018-11-10T00:42:47.515Z,15.55
2018-11-10T00:43:51.618Z,14.70
2018-11-10T00:44:55.716Z,15.70
2018-11-10T00:45:59.929Z,16.20
2018-11-10T00:47:04.089Z,16.10
2018-11-10T00:48:08.271Z,15.90
2018-11-10T00:49:12.444Z,15.55
2018-11-10T00:50:16.659Z,15.00
2018-11-10T00:51:21.866Z,15.38
2018-11-10T00:52:28.223Z,15.13
2018-11-10T00:53:32.389Z,15.10
2018-11-10T00:54:36.444Z,15.60
2018-11-10T00:55:40.576Z,14.75
2018-11-10T00:56:44.814Z,15.98
2018-11-10T00:57:48.887Z,15.18
2018-11-10T00:58:52.955Z,15.28
2018-11-10T00:59:57.161Z,13.98
2018-11-10T01:01:01.406Z,14.58
2018-11-10T01:02:05.603Z,15.72
2018-11-10T01:03:09.808Z,14.73
2018-11-10T01:04:13.890Z,14.87
2018-11-10T01:05:18.028Z,15.20
2018-11-10T01:06:22.144Z,15.05
2018-11-10T01:07:26.353Z,15.48
2018-11-10T01:08:30.475Z,15.18
2018-11-10T01:09:34.634Z,15.48
2018-11-10T01:10:38.702Z,15.70
2018-11-10T01:11:42.844Z,16.52
2018-11-10T01:12:47.110Z,15.58
2018-11-10T01:13:51.139Z,15.55
2018-11-10T01:14:55.603Z,15.80
2018-11-10T01:15:59.880Z,15.83
2018-11-10T01:17:03.980Z,15.35
2018-11-10T01:18:08.120Z,16.97
2018-11-10T01:19:12.433Z,15.58
2018-11-10T01:20:16.497Z,13.62
2018-11-10T01:21:20.608Z,14.63
2018-11-10T01:22:24.697Z,15.75
2018-11-10T01:23:29.247Z,15.35
2018-11-10T01:24:33.416Z,15.90
2018-11-10T01:25:37.557Z,15.65
2018-11-10T01:26:41.670Z,16.23
2018-11-10T01:27:45.824Z,14.93
2018-11-10T01:28:49.867Z,14.68
2018-11-10T01:29:53.976Z,14.43
2018-11-10T01:30:58.071Z,16.67
2018-11-10T01:32:02.209Z,16.10
2018-11-10T01:33:06.224Z,14.78
2018-11-10T01:34:10.435Z,15.03
2018-11-10T01:35:14.987Z,14.78
2018-11-10T01:36:19.046Z,14.70
2018-11-10T01:37:23.115Z,16.70
2018-11-10T01:38:27.227Z,15.53
2018-11-10T01:39:31.266Z,16.30
2018-11-10T01:40:35.360Z,15.10
2018-11-10T01:41:39.792Z,15.83
2018-11-10T01:42:44.410Z,16.05
2018-11-10T01:43:48.555Z,15.40
2018-11-10T01:44:52.662Z,15.40
2018-11-10T01:45:56.752Z,15.08
2018-11-10T01:47:00.902Z,16.07
2018-11-10T01:48:05.436Z,15.68
2018-11-10T01:49:09.500Z,17.02
2018-11-10T01:50:13.666Z,16.02
2018-11-10T01:51:17.767Z,15.35
2018-11-10T01:52:21.833Z,15.45
2018-11-10T01:53:25.893Z,15.60
2018-11-10T01:54:30.071Z,16.67
2018-11-10T01:55:34.340Z,16.50
2018-11-10T01:56:38.434Z,15.68
2018-11-10T01:57:43.291Z,16.57
2018-11-10T01:58:47.409Z,15.30
2018-11-10T01:59:51.475Z,15.78
2018-11-10T02:00:55.601Z,17.27
2018-11-10T02:02:00.856Z,14.78
2018-11-10T02:03:05.321Z,14.87
2018-11-10T02:04:09.547Z,16.02
2018-11-10T02:05:17.392Z,15.58
2018-11-10T02:06:21.588Z,15.80
2018-11-10T02:07:25.631Z,16.50
2018-11-10T02:08:29.759Z,15.88
2018-11-10T02:09:33.877Z,16.15
2018-11-10T02:10:38.056Z,17.10
2018-11-10T02:11:42.158Z,17.05
2018-11-10T02:12:46.304Z,15.45
2018-11-10T02:13:50.430Z,16.32
2018-11-10T02:14:54.621Z,17.10
2018-11-10T02:15:58.788Z,15.90
2018-11-10T02:17:02.950Z,15.68
2018-11-10T02:18:07.140Z,16.70
2018-11-10T02:19:11.312Z,18.30
2018-11-10T02:20:16.011Z,15.78
2018-11-10T02:21:20.089Z,15.65
2018-11-10T02:22:24.548Z,16.65
2018-11-10T02:23:28.860Z,14.63
2018-11-10T02:24:33.127Z,16.50
2018-11-10T02:25:37.265Z,16.60
2018-11-10T02:26:41.349Z,16.10
2018-11-10T02:27:45.516Z,15.98
2018-11-10T02:28:49.697Z,17.05
2018-11-10T02:29:54.959Z,15.05
2018-11-10T02:30:59.348Z,15.28
2018-11-10T02:32:03.444Z,15.10
2018-11-10T02:33:07.645Z,15.63
2018-11-10T02:34:11.778Z,14.93
2018-11-10T02:35:15.891Z,15.08
2018-11-10T02:36:20.055Z,14.95
2018-11-10T02:37:24.178Z,15.60
2018-11-10T02:38:28.431Z,15.70
2018-11-10T02:39:32.585Z,14.95
2018-11-10T02:40:36.712Z,15.08
2018-11-10T02:41:40.810Z,15.05
2018-11-10T02:42:45.161Z,15.58
2018-11-10T02:43:49.346Z,14.85
2018-11-10T02:44:53.467Z,14.65
2018-11-10T02:45:57.524Z,14.45
2018-11-10T02:47:01.610Z,14.30
2018-11-10T02:48:05.784Z,14.93
2018-11-10T02:49:09.824Z,15.03
2018-11-10T02:50:13.967Z,15.20
2018-11-10T02:51:18.217Z,14.45
2018-11-10T02:52:22.399Z,15.23
2018-11-10T02:53:26.488Z,14.58
2018-11-10T02:54:30.780Z,14.98
2018-11-10T02:55:34.900Z,14.58
2018-11-10T02:56:38.945Z,13.53
2018-11-10T02:57:43.255Z,14.33
2018-11-10T02:58:47.430Z,14.58
2018-11-10T02:59:51.512Z,14.40
2018-11-10T03:00:55.615Z,14.25
2018-11-10T03:01:59.756Z,13.75
2018-11-10T03:03:04.020Z,15.40
2018-11-10T03:04:08.163Z,13.90
2018-11-10T03:05:12.510Z,14.18
2018-11-10T03:06:16.543Z,14.78
2018-11-10T03:07:20.711Z,13.93
2018-11-10T03:08:24.737Z,13.40
2018-11-10T03:09:28.971Z,13.38
2018-11-10T03:10:33.152Z,13.98
2018-11-10T03:11:37.537Z,14.07
2018-11-10T03:12:42.108Z,12.70
2018-11-10T03:13:46.185Z,14.28
2018-11-10T03:14:50.307Z,13.68
2018-11-10T03:15:54.620Z,11.70
2018-11-10T03:16:58.726Z,12.78
2018-11-10T03:18:02.820Z,12.85
2018-11-10T03:19:06.952Z,12.68
2018-11-10T03:20:14.854Z,12.37
2018-11-10T03:21:18.951Z,12.75
2018-11-10T03:22:23.065Z,13.00
2018-11-10T03:23:27.206Z,11.97
2018-11-10T03:24:31.321Z,12.03
2018-11-10T03:25:35.452Z,11.28
2018-11-10T03:26:39.567Z,12.60
2018-11-10T03:27:43.733Z,12.03
2018-11-10T03:28:47.846Z,11.60
2018-11-10T03:29:51.971Z,11.05
2018-11-10T03:30:56.071Z,12.88
2018-11-10T03:32:00.162Z,12.65
2018-11-10T03:33:04.677Z,10.78
2018-11-10T03:34:08.887Z,12.37
2018-11-10T03:35:12.975Z,12.07
2018-11-10T03:36:17.047Z,11.22
2018-11-10T03:37:21.186Z,10.38
2018-11-10T03:38:25.302Z,11.43
2018-11-10T03:39:29.403Z,10.72
2018-11-10T03:40:33.499Z,11.05
2018-11-10T03:41:37.683Z,10.35
2018-11-10T03:42:41.764Z,11.48
2018-11-10T03:43:45.907Z,10.40
2018-11-10T03:44:50.039Z,10.20
2018-11-10T03:45:54.211Z,10.20
2018-11-10T03:46:58.373Z,9.70
2018-11-10T03:48:02.536Z,11.05
2018-11-10T03:49:06.635Z,11.05
2018-11-10T03:50:11.549Z,9.95
2018-11-10T03:51:15.731Z,10.35
2018-11-10T03:52:20.203Z,9.03
2018-11-10T03:53:24.312Z,8.83
2018-11-10T03:54:29.217Z,9.50
2018-11-10T03:55:33.319Z,9.60
2018-11-10T03:56:37.424Z,9.80
2018-11-10T03:57:41.506Z,9.15
2018-11-10T03:58:45.548Z,9.90
2018-11-10T03:59:49.630Z,9.58
2018-11-10T04:00:53.711Z,8.83
2018-11-10T04:01:57.736Z,9.28
2018-11-10T04:03:01.847Z,9.35
2018-11-10T04:04:05.966Z,9.03
2018-11-10T04:05:10.737Z,9.60
2018-11-10T04:06:14.911Z,8.80
2018-11-10T04:07:19.116Z,9.38
2018-11-10T04:08:23.171Z,8.85
2018-11-10T04:09:27.371Z,9.38
2018-11-10T04:10:31.412Z,9.45
2018-11-10T04:11:35.599Z,8.70
2018-11-10T04:12:39.911Z,9.48
2018-11-10T04:13:44.034Z,9.70
2018-11-10T04:14:48.228Z,9.13
2018-11-10T04:15:52.340Z,9.28
2018-11-10T04:16:56.759Z,8.90
2018-11-10T04:18:00.796Z,8.65
2018-11-10T04:19:05.305Z,8.35
2018-11-10T04:20:10.250Z,8.13
2018-11-10T04:21:14.420Z,9.05
2018-11-10T04:22:24.888Z,7.90
2018-11-10T04:23:29.075Z,8.38
2018-11-10T04:24:33.176Z,8.70
2018-11-10T04:25:37.412Z,7.65
2018-11-10T04:26:41.560Z,7.28
2018-11-10T04:27:45.681Z,8.10
2018-11-10T04:28:49.795Z,7.70
2018-11-10T04:29:53.956Z,8.33
2018-11-10T04:30:58.104Z,8.05
2018-11-10T04:32:02.347Z,9.08
2018-11-10T04:33:06.438Z,8.90
2018-11-10T04:34:10.617Z,7.78
2018-11-10T04:35:14.826Z,8.30
2018-11-10T04:36:18.891Z,8.58
2018-11-10T04:37:23.283Z,7.72
2018-11-10T04:38:28.016Z,8.35
2018-11-10T04:39:32.155Z,8.45
2018-11-10T04:40:36.299Z,8.50
2018-11-10T04:41:40.418Z,8.98
2018-11-10T04:42:44.533Z,8.30
2018-11-10T04:43:48.671Z,8.20
2018-11-10T04:44:52.821Z,8.05
2018-11-10T04:45:57.535Z,9.03
2018-11-10T04:47:01.690Z,8.88
2018-11-10T04:48:05.883Z,8.53
2018-11-10T04:49:10.126Z,9.18
2018-11-10T04:50:14.371Z,7.45
2018-11-10T04:51:18.443Z,8.90
2018-11-10T04:52:22.458Z,8.15
2018-11-10T04:53:27.603Z,8.23
2018-11-10T04:54:32.444Z,8.45
2018-11-10T04:55:36.500Z,8.80
2018-11-10T04:56:40.641Z,10.18
2018-11-10T04:57:44.751Z,8.70
2018-11-10T04:58:49.006Z,8.35
2018-11-10T04:59:53.082Z,8.93
2018-11-10T05:00:57.180Z,8.65
2018-11-10T05:02:01.292Z,8.75
2018-11-10T05:03:05.711Z,7.95
2018-11-10T05:04:10.024Z,8.20
2018-11-10T05:05:14.136Z,9.10
2018-11-10T05:06:18.260Z,9.03
2018-11-10T05:07:22.476Z,9.38
2018-11-10T05:08:26.515Z,8.30
2018-11-10T05:09:30.636Z,10.28
2018-11-10T05:10:34.697Z,8.43
2018-11-10T05:11:38.743Z,8.68
2018-11-10T05:12:42.867Z,9.05
2018-11-10T05:13:47.027Z,8.95
2018-11-10T05:14:51.097Z,9.38
2018-11-10T05:15:55.151Z,8.45
2018-11-10T05:16:59.576Z,9.18
2018-11-10T05:18:03.596Z,9.48
2018-11-10T05:19:07.682Z,9.10
2018-11-10T05:20:11.889Z,9.08
2018-11-10T05:21:15.994Z,9.73
2018-11-10T05:22:20.116Z,8.20
2018-11-10T05:23:24.220Z,8.75
2018-11-10T05:24:28.524Z,9.35
2018-11-10T05:25:32.611Z,8.73
2018-11-10T05:26:36.759Z,9.68
2018-11-10T05:27:41.038Z,8.88
2018-11-10T05:28:45.223Z,10.00
2018-11-10T05:29:49.306Z,9.23
2018-11-10T05:30:53.517Z,10.38
2018-11-10T05:31:57.600Z,10.10
2018-11-10T05:33:01.769Z,9.10
2018-11-10T05:34:06.571Z,9.50
2018-11-10T05:35:10.648Z,10.32
2018-11-10T05:36:14.869Z,9.88
2018-11-10T05:37:18.985Z,10.08
2018-11-10T05:38:23.250Z,9.95
2018-11-10T05:39:27.317Z,9.38
2018-11-10T05:40:31.319Z,9.65
2018-11-10T05:41:35.492Z,10.35
2018-11-10T05:42:39.927Z,11.15
2018-11-10T05:43:44.071Z,10.28
2018-11-10T05:44:48.231Z,10.28
2018-11-10T05:45:52.314Z,10.03
2018-11-10T05:46:56.402Z,11.18
2018-11-10T05:48:00.455Z,11.05
2018-11-10T05:49:04.548Z,11.25
2018-11-10T05:50:09.303Z,10.13
2018-11-10T05:51:13.498Z,10.70
2018-11-10T05:52:17.603Z,11.57
2018-11-10T05:53:21.683Z,10.95
2018-11-10T05:54:25.797Z,9.85
2018-11-10T05:55:29.870Z,13.05
2018-11-10T05:56:33.888Z,10.63
2018-11-10T05:57:38.218Z,11.55
2018-11-10T05:58:42.327Z,12.50
2018-11-10T05:59:46.394Z,11.33
2018-11-10T06:00:50.447Z,11.48
2018-11-10T06:01:54.599Z,12.25
2018-11-10T06:02:58.673Z,10.82
2018-11-10T06:04:02.692Z,11.28
2018-11-10T06:05:06.907Z,12.25
2018-11-10T06:06:10.996Z,11.63
2018-11-10T06:07:15.244Z,11.43
2018-11-10T06:08:19.285Z,10.85
2018-11-10T06:09:23.489Z,12.78
2018-11-10T06:10:27.540Z,11.88
2018-11-10T06:11:31.594Z,11.15
2018-11-10T06:12:35.937Z,11.65
2018-11-10T06:13:40.487Z,12.70
2018-11-10T06:14:44.632Z,12.70
2018-11-10T06:15:48.688Z,13.50
2018-11-10T06:16:52.841Z,12.28
2018-11-10T06:17:57.092Z,11.97
2018-11-10T06:19:01.334Z,12.15
2018-11-10T06:20:06.774Z,11.57
2018-11-10T06:21:11.007Z,12.45
2018-11-10T06:22:15.167Z,12.82
2018-11-10T06:23:19.298Z,11.70
2018-11-10T06:24:23.356Z,11.73
2018-11-10T06:25:27.440Z,11.15
2018-11-10T06:26:31.739Z,10.25
2018-11-10T06:27:36.760Z,11.18
2018-11-10T06:28:40.997Z,12.30
2018-11-10T06:29:51.908Z,11.40
2018-11-10T06:30:56.007Z,11.30
2018-11-10T06:32:00.238Z,11.95
2018-11-10T06:33:04.315Z,12.20
2018-11-10T06:34:08.404Z,12.10
2018-11-10T06:35:12.653Z,11.80
2018-11-10T06:36:16.808Z,11.30
2018-11-10T06:37:20.976Z,11.70
2018-11-10T06:38:25.093Z,10.70
2018-11-10T06:39:29.192Z,12.30
2018-11-10T06:40:33.342Z,12.50
2018-11-10T06:41:37.526Z,11.28
2018-11-10T06:42:42.257Z,12.28
2018-11-10T06:43:46.357Z,12.65
2018-11-10T06:44:50.488Z,13.00
2018-11-10T06:45:55.137Z,11.80
2018-11-10T06:46:59.212Z,12.10
2018-11-10T06:48:03.197Z,12.75
2018-11-10T06:49:07.708Z,11.03
2018-11-10T06:50:12.187Z,13.72
2018-11-10T06:51:16.337Z,14.07
2018-11-10T06:52:20.646Z,12.05
2018-11-10T06:53:24.972Z,12.43
2018-11-10T06:54:29.125Z,12.90
2018-11-10T06:55:33.178Z,12.90
2018-11-10T06:56:37.266Z,11.53
2018-11-10T06:57:41.366Z,13.80
2018-11-10T06:58:45.490Z,14.30
2018-11-10T06:59:49.696Z,15.50
2018-11-10T07:00:53.844Z,12.53
2018-11-10T07:01:58.088Z,13.00
2018-11-10T07:03:02.224Z,12.53
2018-11-10T07:04:06.439Z,12.55
2018-11-10T07:05:11.350Z,12.05
2018-11-10T07:06:15.610Z,12.05
2018-11-10T07:07:19.742Z,11.63
2018-11-10T07:08:23.905Z,13.10
2018-11-10T07:09:28.046Z,12.15
2018-11-10T07:10:32.019Z,11.30
2018-11-10T07:11:36.334Z,12.33
2018-11-10T07:12:40.536Z,11.30
2018-11-10T07:13:44.633Z,13.25
2018-11-10T07:14:48.788Z,11.53
2018-11-10T07:15:53.004Z,11.28
2018-11-10T07:16:57.047Z,11.00
2018-11-10T07:18:01.516Z,14.47
2018-11-10T07:19:05.693Z,11.83
2018-11-10T07:20:09.781Z,12.35
2018-11-10T07:21:13.913Z,12.60
2018-11-10T07:22:18.023Z,12.40
2018-11-10T07:23:22.328Z,12.03
2018-11-10T07:24:26.462Z,13.25
2018-11-10T07:25:30.578Z,12.53
2018-11-10T07:26:34.759Z,12.78
2018-11-10T07:27:38.897Z,11.38
2018-11-10T07:28:43.068Z,12.55
2018-11-10T07:29:47.253Z,12.30
2018-11-10T07:30:51.459Z,11.48
2018-11-10T07:31:55.608Z,11.10
2018-11-10T07:32:59.819Z,11.18
2018-11-10T07:34:03.873Z,11.80
2018-11-10T07:35:08.660Z,11.88
2018-11-10T07:36:12.828Z,11.75
2018-11-10T07:37:17.033Z,12.40
2018-11-10T07:38:21.064Z,12.13
2018-11-10T07:39:25.172Z,12.68
2018-11-10T07:40:29.219Z,11.53
2018-11-10T07:41:33.342Z,11.68
2018-11-10T07:42:37.380Z,13.00
2018-11-10T07:43:41.485Z,13.00
2018-11-10T07:44:45.632Z,10.60
2018-11-10T07:45:49.839Z,11.78
2018-11-10T07:46:53.924Z,11.45
2018-11-10T07:47:58.090Z,11.35
2018-11-10T07:49:02.280Z,9.98
2018-11-10T07:50:07.505Z,12.53
2018-11-10T07:51:11.832Z,11.73
2018-11-10T07:52:15.801Z,11.35
2018-11-10T07:53:20.191Z,11.57
2018-11-10T07:54:24.317Z,11.08
2018-11-10T07:55:28.380Z,11.53
2018-11-10T07:56:32.440Z,11.20
2018-11-10T07:57:36.668Z,10.50
2018-11-10T07:58:40.861Z,10.95
2018-11-10T07:59:45.082Z,12.10
2018-11-10T08:00:49.107Z,12.37
2018-11-10T08:01:53.180Z,10.20
2018-11-10T08:02:57.320Z,11.40
2018-11-10T08:04:01.471Z,11.25
2018-11-10T08:05:05.914Z,11.78
2018-11-10T08:06:10.160Z,11.20
2018-11-10T08:07:14.212Z,11.53
2018-11-10T08:08:18.338Z,10.95
2018-11-10T08:09:22.470Z,11.40
2018-11-10T08:10:26.604Z,11.68
2018-11-10T08:11:30.897Z,11.65
2018-11-10T08:12:35.197Z,11.00
2018-11-10T08:13:39.296Z,11.85
2018-11-10T08:14:43.377Z,10.38
2018-11-10T08:15:47.544Z,10.88
2018-11-10T08:16:51.690Z,9.98
2018-11-10T08:17:55.736Z,10.18
2018-11-10T08:19:00.024Z,9.75
2018-11-10T08:20:04.284Z,10.95
2018-11-10T08:21:08.724Z,9.35
2018-11-10T08:22:12.772Z,10.80
2018-11-10T08:23:17.147Z,10.10
2018-11-10T08:24:21.396Z,10.65
2018-11-10T08:25:25.527Z,11.88
2018-11-10T08:26:29.742Z,11.08
2018-11-10T08:27:33.832Z,11.40
2018-11-10T08:28:38.212Z,9.88
2018-11-10T08:29:42.375Z,10.40
2018-11-10T08:30:46.399Z,11.05
2018-11-10T08:31:50.433Z,10.10
2018-11-10T08:32:54.570Z,10.32
2018-11-10T08:33:58.684Z,10.82
2018-11-10T08:35:03.595Z,9.83
2018-11-10T08:36:07.700Z,10.72
2018-11-10T08:37:11.920Z,10.72
2018-11-10T08:38:16.029Z,11.48
2018-11-10T08:39:20.233Z,10.43
2018-11-10T08:40:24.454Z,11.10
2018-11-10T08:41:28.607Z,10.75
2018-11-10T08:42:32.683Z,11.55
2018-11-10T08:43:36.773Z,10.28
2018-11-10T08:44:40.973Z,10.60
2018-11-10T08:45:45.228Z,9.40
2018-11-10T08:46:49.323Z,9.05
2018-11-10T08:47:53.423Z,9.83
2018-11-10T08:48:57.522Z,10.82
2018-11-10T08:50:01.617Z,9.60
2018-11-10T08:51:06.057Z,8.55
2018-11-10T08:52:10.177Z,9.35
2018-11-10T08:53:14.282Z,10.35
2018-11-10T08:54:18.378Z,9.20
2018-11-10T08:55:22.546Z,9.83
2018-11-10T08:56:26.624Z,10.05
2018-11-10T08:57:30.896Z,9.15
2018-11-10T08:58:35.204Z,8.50
2018-11-10T08:59:39.233Z,9.70
2018-11-10T09:00:43.438Z,9.43
2018-11-10T09:01:47.678Z,9.93
2018-11-10T09:02:52.077Z,9.88
2018-11-10T09:03:56.132Z,9.45
2018-11-10T09:05:00.354Z,9.55
2018-11-10T09:06:04.445Z,10.32
2018-11-10T09:07:08.573Z,9.63
2018-11-10T09:08:12.686Z,8.95
2018-11-10T09:09:16.764Z,10.10
2018-11-10T09:10:20.842Z,9.80
2018-11-10T09:11:25.019Z,10.32
2018-11-10T09:12:29.056Z,9.70
2018-11-10T09:13:33.158Z,8.60
2018-11-10T09:14:37.374Z,9.28
2018-11-10T09:15:41.410Z,8.43
2018-11-10T09:16:45.546Z,8.48
2018-11-10T09:17:49.896Z,10.30
2018-11-10T09:18:54.015Z,8.93
2018-11-10T09:19:58.517Z,8.25
2018-11-10T09:21:02.640Z,9.05
2018-11-10T09:22:07.663Z,9.05
2018-11-10T09:23:11.768Z,8.55
2018-11-10T09:24:15.874Z,8.40
2018-11-10T09:25:20.071Z,8.98
2018-11-10T09:26:24.706Z,8.73
2018-11-10T09:27:28.827Z,7.47
2018-11-10T09:28:33.025Z,9.65
2018-11-10T09:29:37.161Z,9.10
2018-11-10T09:30:41.333Z,8.60
2018-11-10T09:31:45.336Z,8.45
2018-11-10T09:32:49.537Z,7.70
2018-11-10T09:33:53.628Z,7.50
2018-11-10T09:34:57.881Z,9.05
2018-11-10T09:36:02.310Z,8.95
2018-11-10T09:37:06.624Z,8.15
2018-11-10T09:38:10.806Z,8.28
2018-11-10T09:39:14.992Z,7.42
2018-11-10T09:40:19.158Z,7.45
2018-11-10T09:41:23.360Z,8.50
2018-11-10T09:42:27.469Z,8.38
2018-11-10T09:43:31.515Z,7.35
2018-11-10T09:44:35.704Z,8.23
2018-11-10T09:45:39.885Z,7.25
2018-11-10T09:46:44.029Z,7.08
2018-11-10T09:47:48.367Z,7.58
2018-11-10T09:48:52.443Z,8.23
2018-11-10T09:49:56.621Z,7.58
2018-11-10T09:51:00.764Z,7.42
2018-11-10T09:52:04.849Z,7.80
2018-11-10T09:53:09.135Z,7.17
2018-11-10T09:54:13.622Z,7.90
2018-11-10T09:55:18.293Z,6.92
2018-11-10T09:56:22.453Z,6.60
2018-11-10T09:57:26.491Z,6.37
2018-11-10T09:58:30.892Z,7.37
2018-11-10T09:59:35.088Z,7.42
2018-11-10T10:00:39.246Z,6.65
2018-11-10T10:01:43.472Z,6.53
2018-11-10T10:02:47.925Z,7.00
2018-11-10T10:03:51.724Z,6.62
2018-11-10T10:04:55.859Z,7.00
2018-11-10T10:06:00.022Z,6.17
2018-11-10T10:07:05.015Z,6.47
2018-11-10T10:08:09.224Z,6.80
2018-11-10T10:09:13.273Z,6.35
2018-11-10T10:10:18.138Z,5.55
2018-11-10T10:11:22.226Z,6.00
2018-11-10T10:12:26.708Z,5.45
2018-11-10T10:13:30.836Z,5.90
2018-11-10T10:14:35.003Z,6.47
2018-11-10T10:15:39.198Z,6.00
2018-11-10T10:16:43.382Z,6.37
2018-11-10T10:17:47.689Z,5.42
2018-11-10T10:18:51.936Z,5.87
2018-11-10T10:19:56.070Z,5.42
2018-11-10T10:21:00.245Z,5.95
2018-11-10T10:22:04.632Z,5.45
2018-11-10T10:23:08.821Z,5.08
2018-11-10T10:24:13.468Z,5.62
2018-11-10T10:25:18.179Z,5.70
2018-11-10T10:26:22.297Z,5.45
2018-11-10T10:27:26.443Z,5.87
2018-11-10T10:28:30.581Z,5.17
2018-11-10T10:29:34.687Z,5.50
2018-11-10T10:30:38.968Z,5.03
2018-11-10T10:31:43.200Z,5.42
2018-11-10T10:32:48.230Z,5.60
2018-11-10T10:33:52.609Z,5.85
2018-11-10T10:34:56.980Z,5.20
2018-11-10T10:36:01.002Z,5.03
2018-11-10T10:37:05.823Z,4.17
2018-11-10T10:38:11.242Z,5.05
2018-11-10T10:39:15.548Z,4.47
2018-11-10T10:40:19.914Z,4.10
2018-11-10T10:41:23.988Z,4.85
2018-11-10T10:42:28.075Z,4.35
2018-11-10T10:43:32.288Z,3.90
2018-11-10T10:44:36.560Z,3.87
2018-11-10T10:45:41.253Z,3.35
2018-11-10T10:46:45.346Z,3.12
2018-11-10T10:47:49.399Z,2.83
2018-11-10T10:48:53.611Z,3.20
2018-11-10T10:49:57.586Z,3.10
2018-11-10T10:51:02.492Z,2.75
2018-11-10T10:52:06.642Z,3.20
2018-11-10T10:53:10.779Z,3.02
2018-11-10T10:54:15.250Z,2.83
2018-11-10T10:55:26.031Z,2.85
2018-11-10T10:56:30.280Z,3.00
2018-11-10T10:57:35.872Z,3.05
2018-11-10T10:58:40.041Z,3.02
2018-11-10T10:59:44.127Z,3.75
2018-11-10T11:00:53.660Z,3.70
2018-11-10T11:02:03.111Z,3.70
2018-11-10T11:03:15.104Z,3.75
2018-11-10T11:04:24.375Z,4.05
2018-11-10T11:05:33.905Z,3.90
2018-11-10T11:06:38.003Z,3.85
2018-11-10T11:07:42.274Z,5.00
2018-11-10T11:08:46.487Z,4.42
2018-11-10T11:09:50.547Z,4.62
2018-11-10T11:10:54.720Z,5.17
2018-11-10T11:11:58.803Z,5.10
2018-11-10T11:13:02.948Z,5.40
2018-11-10T11:14:07.392Z,5.00
2018-11-10T11:15:11.640Z,4.87
2018-11-10T11:16:16.039Z,5.45
2018-11-10T11:17:20.350Z,5.22
2018-11-10T11:18:24.547Z,4.67
2018-11-10T11:19:28.642Z,6.08
2018-11-10T11:20:32.827Z,5.20
2018-11-10T11:21:37.488Z,5.72
2018-11-10T11:22:41.872Z,5.10
2018-11-10T11:23:46.063Z,6.22
2018-11-10T11:24:50.174Z,5.03
2018-11-10T11:25:54.337Z,5.75
2018-11-10T11:26:58.595Z,4.67
2018-11-10T11:28:02.792Z,5.60
2018-11-10T11:29:06.916Z,5.85
2018-11-10T11:30:10.957Z,5.83
2018-11-10T11:31:15.108Z,5.78
2018-11-10T11:32:19.157Z,5.62
2018-11-10T11:33:23.217Z,5.22
2018-11-10T11:34:27.399Z,5.53
2018-11-10T11:35:32.139Z,5.95
2018-11-10T11:36:36.285Z,5.75
2018-11-10T11:37:41.173Z,6.42
2018-11-10T11:38:45.440Z,5.85
2018-11-10T11:39:49.572Z,6.45
2018-11-10T11:40:53.852Z,5.83
2018-11-10T11:41:58.037Z,6.65
2018-11-10T11:43:02.076Z,7.40
2018-11-10T11:44:06.718Z,6.87
2018-11-10T11:45:11.822Z,6.87
2018-11-10T11:46:16.430Z,6.62
2018-11-10T11:47:20.702Z,6.92
2018-11-10T11:48:24.757Z,6.83
2018-11-10T11:49:28.876Z,7.58
2018-11-10T11:50:33.329Z,6.90
2018-11-10T11:51:37.355Z,6.62
2018-11-10T11:52:42.022Z,6.72
2018-11-10T11:53:46.145Z,6.47
2018-11-10T11:54:50.357Z,6.42
2018-11-10T11:55:54.442Z,6.03
2018-11-10T11:56:58.564Z,7.20
2018-11-10T11:58:02.837Z,6.90
2018-11-10T11:59:06.836Z,7.67
2018-11-10T12:00:13.808Z,7.12
2018-11-10T12:01:17.913Z,7.17
2018-11-10T12:02:22.230Z,7.22
2018-11-10T12:03:26.186Z,7.28
2018-11-10T12:04:30.659Z,6.83
2018-11-10T12:05:34.657Z,6.62
2018-11-10T12:06:38.741Z,7.10
2018-11-10T12:07:43.030Z,6.30
2018-11-10T12:08:47.178Z,7.17
2018-11-10T12:09:51.353Z,7.05
2018-11-10T12:10:55.459Z,7.10
2018-11-10T12:11:59.618Z,6.70
2018-11-10T12:13:03.788Z,6.53
2018-11-10T12:14:07.904Z,6.03
2018-11-10T12:15:13.408Z,7.12
2018-11-10T12:16:27.197Z,6.92
2018-11-10T12:17:21.590Z,6.95
2018-11-10T12:18:25.681Z,7.20
2018-11-10T12:19:29.801Z,7.70
2018-11-10T12:20:33.913Z,6.80
2018-11-10T12:21:39.240Z,7.10
2018-11-10T12:22:43.508Z,7.15
2018-11-10T12:23:47.645Z,6.60
2018-11-10T12:24:51.703Z,7.65
2018-11-10T12:25:56.098Z,7.25
2018-11-10T12:27:00.196Z,8.15
2018-11-10T12:28:04.556Z,6.67
2018-11-10T12:29:08.643Z,6.72
2018-11-10T12:30:12.986Z,7.35
2018-11-10T12:31:17.083Z,7.10
2018-11-10T12:32:21.202Z,7.40
2018-11-10T12:33:25.541Z,7.40
2018-11-10T12:34:29.799Z,7.70
2018-11-10T12:35:33.924Z,7.50
2018-11-10T12:36:38.099Z,7.58
2018-11-10T12:37:42.642Z,7.30
2018-11-10T12:38:46.950Z,7.60
2018-11-10T12:39:51.254Z,7.20
2018-11-10T12:40:55.424Z,7.75
2018-11-10T12:41:59.680Z,7.78
2018-11-10T12:43:03.755Z,7.78
2018-11-10T12:44:08.467Z,8.18
2018-11-10T12:45:13.523Z,7.17
2018-11-10T12:46:17.655Z,7.80
2018-11-10T12:47:21.828Z,8.25
2018-11-10T12:48:25.886Z,8.35
2018-11-10T12:49:30.149Z,8.05
2018-11-10T12:50:34.357Z,7.25
2018-11-10T12:51:38.414Z,7.75
2018-11-10T12:52:43.467Z,7.40
2018-11-10T12:53:47.622Z,8.70
2018-11-10T12:54:51.789Z,8.35
2018-11-10T12:55:55.864Z,8.70
2018-11-10T12:57:00.084Z,8.45
2018-11-10T12:58:04.190Z,8.55
2018-11-10T12:59:08.533Z,8.23
2018-11-10T13:00:13.946Z,7.45
2018-11-10T13:01:18.040Z,8.10
2018-11-10T13:02:22.256Z,7.95
2018-11-10T13:03:26.347Z,7.95
2018-11-10T13:04:30.538Z,7.85
2018-11-10T13:05:34.883Z,8.30
2018-11-10T13:06:39.012Z,7.47
2018-11-10T13:07:45.351Z,7.58
2018-11-10T13:08:49.492Z,8.05
2018-11-10T13:09:53.528Z,8.45
2018-11-10T13:10:57.719Z,8.20
2018-11-10T13:12:02.117Z,7.40
2018-11-10T13:13:06.166Z,8.30
2018-11-10T13:14:11.025Z,7.40
2018-11-10T13:15:15.747Z,7.40
2018-11-10T13:16:19.807Z,8.88
2018-11-10T13:17:23.926Z,8.75
2018-11-10T13:18:28.244Z,8.73
2018-11-10T13:19:32.353Z,8.05
2018-11-10T13:20:36.476Z,8.23
2018-11-10T13:21:40.981Z,8.48
2018-11-10T13:22:45.057Z,7.83
2018-11-10T13:23:49.204Z,9.70
2018-11-10T13:24:53.604Z,8.48
2018-11-10T13:25:57.707Z,8.38
2018-11-10T13:27:01.771Z,8.85
2018-11-10T13:28:05.851Z,8.55
2018-11-10T13:29:10.468Z,9.18
2018-11-10T13:30:15.513Z,8.60
2018-11-10T13:31:19.684Z,7.78
2018-11-10T13:32:23.728Z,7.25
2018-11-10T13:33:28.025Z,8.55
2018-11-10T13:34:32.271Z,7.80
2018-11-10T13:35:36.279Z,8.53
2018-11-10T13:36:40.493Z,8.20
2018-11-10T13:37:44.559Z,8.48
2018-11-10T13:38:48.831Z,8.20
2018-11-10T13:39:52.987Z,7.72
2018-11-10T13:40:57.065Z,8.53
2018-11-10T13:42:01.840Z,8.30
2018-11-10T13:43:06.592Z,7.90
2018-11-10T13:44:10.711Z,8.50
2018-11-10T13:45:15.540Z,8.80
2018-11-10T13:46:19.589Z,9.18
2018-11-10T13:47:23.735Z,7.70
2018-11-10T13:48:27.926Z,7.62
2018-11-10T13:49:31.998Z,7.95
2018-11-10T13:50:36.219Z,8.33
2018-11-10T13:51:40.459Z,8.08
2018-11-10T13:52:44.707Z,8.93
2018-11-10T13:53:48.607Z,6.92
2018-11-10T13:54:52.697Z,7.85
2018-11-10T13:55:56.807Z,7.87
2018-11-10T13:57:00.844Z,7.60
2018-11-10T13:58:05.295Z,7.40
2018-11-10T13:59:09.619Z,8.83
2018-11-10T14:00:15.061Z,7.42
2018-11-10T14:01:19.239Z,6.95
2018-11-10T14:02:23.317Z,6.80